sensor_id;sensor_type;location;lat;lon;timestamp;P1;P2;P0
47810;PMS5003;33575;52.600;7.318;2023-02-02T00:00:14;9;6;
47810;PMS5003;33575;52.600;7.318;2023-02-02T00:02:44;7;5;
47810;PMS5003;33575;52.600;7.318;2023-02-02T00:05:15;6;3;
47810;PMS5003;33575;52.600;7.318;2023-02-02T00:07:46;8;5;
47810;PMS5003;33575;52.600;7.318;2023-02-02T00:10:16;8;5;
47810;PMS5003;33575;52.600;7.318;2023-02-02T00:12:47;11;6;
47810;PMS5003;33575;52.600;7.318;2023-02-02T00:15:18;8;7;
47810;PMS5003;33575;52.600;7.318;2023-02-02T00:17:48;6;4;
47810;PMS5003;33575;52.600;7.318;2023-02-02T00:20:19;6;3;
47810;PMS5003;33575;52.600;7.318;2023-02-02T00:22:50;6;4;
47810;PMS5003;33575;52.600;7.318;2023-02-02T00:25:20;6;4;
47810;PMS5003;33575;52.600;7.318;2023-02-02T00:27:51;10;4;
47810;PMS5003;33575;52.600;7.318;2023-02-02T00:30:22;7;3;
47810;PMS5003;33575;52.600;7.318;2023-02-02T00:32:52;5;4;
47810;PMS5003;33575;52.600;7.318;2023-02-02T00:35:23;4;2;
47810;PMS5003;33575;52.600;7.318;2023-02-02T00:37:54;5;4;
47810;PMS5003;33575;52.600;7.318;2023-02-02T00:40:24;3;3;
47810;PMS5003;33575;52.600;7.318;2023-02-02T00:42:55;8;5;
47810;PMS5003;33575;52.600;7.318;2023-02-02T00:45:26;4;2;
47810;PMS5003;33575;52.600;7.318;2023-02-02T00:47:57;10;6;
47810;PMS5003;33575;52.600;7.318;2023-02-02T00:50:27;4;2;
47810;PMS5003;33575;52.600;7.318;2023-02-02T00:52:58;5;4;
47810;PMS5003;33575;52.600;7.318;2023-02-02T00:55:29;5;3;
47810;PMS5003;33575;52.600;7.318;2023-02-02T00:57:59;5;4;
47810;PMS5003;33575;52.600;7.318;2023-02-02T01:00:30;9;5;
47810;PMS5003;33575;52.600;7.318;2023-02-02T01:03:01;7;5;
47810;PMS5003;33575;52.600;7.318;2023-02-02T01:05:31;4;2;
47810;PMS5003;33575;52.600;7.318;2023-02-02T01:08:02;5;4;
47810;PMS5003;33575;52.600;7.318;2023-02-02T01:10:33;10;4;
47810;PMS5003;33575;52.600;7.318;2023-02-02T01:13:03;4;2;
47810;PMS5003;33575;52.600;7.318;2023-02-02T01:15:35;4;2;
47810;PMS5003;33575;52.600;7.318;2023-02-02T01:18:05;6;4;
47810;PMS5003;33575;52.600;7.318;2023-02-02T01:20:36;1;1;
47810;PMS5003;33575;52.600;7.318;2023-02-02T01:23:06;4;3;
47810;PMS5003;33575;52.600;7.318;2023-02-02T01:25:37;4;4;
47810;PMS5003;33575;52.600;7.318;2023-02-02T01:28:08;5;3;
47810;PMS5003;33575;52.600;7.318;2023-02-02T01:30:38;5;5;
47810;PMS5003;33575;52.600;7.318;2023-02-02T01:33:09;5;3;
47810;PMS5003;33575;52.600;7.318;2023-02-02T01:35:44;3;3;
47810;PMS5003;33575;52.600;7.318;2023-02-02T01:38:10;6;3;
47810;PMS5003;33575;52.600;7.318;2023-02-02T01:40:44;4;3;
47810;PMS5003;33575;52.600;7.318;2023-02-02T01:43:15;3;2;
47810;PMS5003;33575;52.600;7.318;2023-02-02T01:45:42;6;2;
47810;PMS5003;33575;52.600;7.318;2023-02-02T01:48:13;7;5;
47810;PMS5003;33575;52.600;7.318;2023-02-02T01:50:44;6;2;
47810;PMS5003;33575;52.600;7.318;2023-02-02T01:53:14;5;2;
47810;PMS5003;33575;52.600;7.318;2023-02-02T01:55:45;7;3;
47810;PMS5003;33575;52.600;7.318;2023-02-02T01:58:16;6;3;
47810;PMS5003;33575;52.600;7.318;2023-02-02T02:00:47;5;3;
47810;PMS5003;33575;52.600;7.318;2023-02-02T02:03:18;4;2;
47810;PMS5003;33575;52.600;7.318;2023-02-02T02:05:49;8;4;
47810;PMS5003;33575;52.600;7.318;2023-02-02T02:08:21;3;3;
47810;PMS5003;33575;52.600;7.318;2023-02-02T02:10:49;3;3;
47810;PMS5003;33575;52.600;7.318;2023-02-02T02:13:21;6;2;
47810;PMS5003;33575;52.600;7.318;2023-02-02T02:15:53;8;3;
47810;PMS5003;33575;52.600;7.318;2023-02-02T02:18:24;3;1;
47810;PMS5003;33575;52.600;7.318;2023-02-02T02:20:57;8;5;
47810;PMS5003;33575;52.600;7.318;2023-02-02T02:25:59;5;2;
47810;PMS5003;33575;52.600;7.318;2023-02-02T02:28:32;6;4;
47810;PMS5003;33575;52.600;7.318;2023-02-02T02:31:00;5;3;
47810;PMS5003;33575;52.600;7.318;2023-02-02T02:33:25;3;2;
47810;PMS5003;33575;52.600;7.318;2023-02-02T02:35:56;3;3;
47810;PMS5003;33575;52.600;7.318;2023-02-02T02:38:28;7;7;
47810;PMS5003;33575;52.600;7.318;2023-02-02T02:40:57;2;2;
47810;PMS5003;33575;52.600;7.318;2023-02-02T02:43:28;6;4;
47810;PMS5003;33575;52.600;7.318;2023-02-02T02:45:58;4;3;
47810;PMS5003;33575;52.600;7.318;2023-02-02T02:48:28;3;3;
47810;PMS5003;33575;52.600;7.318;2023-02-02T02:53:30;7;3;
47810;PMS5003;33575;52.600;7.318;2023-02-02T02:56:02;8;4;
47810;PMS5003;33575;52.600;7.318;2023-02-02T02:58:32;4;2;
47810;PMS5003;33575;52.600;7.318;2023-02-02T03:01:05;6;3;
47810;PMS5003;33575;52.600;7.318;2023-02-02T03:03:39;4;3;
47810;PMS5003;33575;52.600;7.318;2023-02-02T03:06:04;4;4;
47810;PMS5003;33575;52.600;7.318;2023-02-02T03:08:35;1;0;
47810;PMS5003;33575;52.600;7.318;2023-02-02T03:11:05;5;4;
47810;PMS5003;33575;52.600;7.318;2023-02-02T03:13:35;4;4;
47810;PMS5003;33575;52.600;7.318;2023-02-02T03:16:07;6;4;
47810;PMS5003;33575;52.600;7.318;2023-02-02T03:18:37;5;4;
47810;PMS5003;33575;52.600;7.318;2023-02-02T03:21:08;3;3;
47810;PMS5003;33575;52.600;7.318;2023-02-02T03:23:38;6;4;
47810;PMS5003;33575;52.600;7.318;2023-02-02T03:26:09;6;5;
47810;PMS5003;33575;52.600;7.318;2023-02-02T03:28:39;7;6;
47810;PMS5003;33575;52.600;7.318;2023-02-02T03:31:10;16;12;
47810;PMS5003;33575;52.600;7.318;2023-02-02T03:33:41;9;9;
47810;PMS5003;33575;52.600;7.318;2023-02-02T03:36:11;7;6;
47810;PMS5003;33575;52.600;7.318;2023-02-02T03:38:42;7;7;
47810;PMS5003;33575;52.600;7.318;2023-02-02T03:41:13;8;7;
47810;PMS5003;33575;52.600;7.318;2023-02-02T03:43:43;8;5;
47810;PMS5003;33575;52.600;7.318;2023-02-02T03:46:14;13;6;
47810;PMS5003;33575;52.600;7.318;2023-02-02T03:48:45;7;6;
47810;PMS5003;33575;52.600;7.318;2023-02-02T03:51:15;6;4;
47810;PMS5003;33575;52.600;7.318;2023-02-02T03:53:46;7;5;
47810;PMS5003;33575;52.600;7.318;2023-02-02T03:56:16;7;3;
47810;PMS5003;33575;52.600;7.318;2023-02-02T03:58:47;5;5;
47810;PMS5003;33575;52.600;7.318;2023-02-02T04:01:24;9;7;
47810;PMS5003;33575;52.600;7.318;2023-02-02T04:03:49;3;2;
47810;PMS5003;33575;52.600;7.318;2023-02-02T04:06:19;2;1;
47810;PMS5003;33575;52.600;7.318;2023-02-02T04:08:50;2;2;
47810;PMS5003;33575;52.600;7.318;2023-02-02T04:11:21;1;0;
47810;PMS5003;33575;52.600;7.318;2023-02-02T04:13:51;3;2;
47810;PMS5003;33575;52.600;7.318;2023-02-02T04:16:22;4;2;
47810;PMS5003;33575;52.600;7.318;2023-02-02T04:18:53;2;1;
47810;PMS5003;33575;52.600;7.318;2023-02-02T04:21:24;5;2;
47810;PMS5003;33575;52.600;7.318;2023-02-02T04:23:54;3;2;
47810;PMS5003;33575;52.600;7.318;2023-02-02T04:26:25;4;3;
47810;PMS5003;33575;52.600;7.318;2023-02-02T04:28:56;4;3;
47810;PMS5003;33575;52.600;7.318;2023-02-02T04:31:27;3;3;
47810;PMS5003;33575;52.600;7.318;2023-02-02T04:33:58;4;2;
47810;PMS5003;33575;52.600;7.318;2023-02-02T04:36:28;7;4;
47810;PMS5003;33575;52.600;7.318;2023-02-02T04:38:59;5;5;
47810;PMS5003;33575;52.600;7.318;2023-02-02T04:41:29;2;2;
47810;PMS5003;33575;52.600;7.318;2023-02-02T04:44:00;4;3;
47810;PMS5003;33575;52.600;7.318;2023-02-02T04:46:31;6;3;
47810;PMS5003;33575;52.600;7.318;2023-02-02T04:49:02;5;4;
47810;PMS5003;33575;52.600;7.318;2023-02-02T04:51:33;2;1;
47810;PMS5003;33575;52.600;7.318;2023-02-02T04:54:03;1;1;
47810;PMS5003;33575;52.600;7.318;2023-02-02T04:56:34;2;0;
47810;PMS5003;33575;52.600;7.318;2023-02-02T04:59:04;1;0;
47810;PMS5003;33575;52.600;7.318;2023-02-02T05:01:35;2;1;
47810;PMS5003;33575;52.600;7.318;2023-02-02T05:04:06;1;1;
47810;PMS5003;33575;52.600;7.318;2023-02-02T05:06:37;2;2;
47810;PMS5003;33575;52.600;7.318;2023-02-02T05:09:08;3;1;
47810;PMS5003;33575;52.600;7.318;2023-02-02T05:11:39;3;3;
47810;PMS5003;33575;52.600;7.318;2023-02-02T05:14:09;1;1;
47810;PMS5003;33575;52.600;7.318;2023-02-02T05:16:39;2;2;
47810;PMS5003;33575;52.600;7.318;2023-02-02T05:19:10;1;0;
47810;PMS5003;33575;52.600;7.318;2023-02-02T05:21:41;1;1;
47810;PMS5003;33575;52.600;7.318;2023-02-02T05:24:12;1;1;
47810;PMS5003;33575;52.600;7.318;2023-02-02T05:26:42;1;1;
47810;PMS5003;33575;52.600;7.318;2023-02-02T05:29:13;1;0;
47810;PMS5003;33575;52.600;7.318;2023-02-02T05:31:44;0;0;
47810;PMS5003;33575;52.600;7.318;2023-02-02T05:34:15;1;0;
47810;PMS5003;33575;52.600;7.318;2023-02-02T05:36:45;0;0;
47810;PMS5003;33575;52.600;7.318;2023-02-02T05:39:16;0;0;
47810;PMS5003;33575;52.600;7.318;2023-02-02T05:41:47;1;1;
47810;PMS5003;33575;52.600;7.318;2023-02-02T05:44:17;1;0;
47810;PMS5003;33575;52.600;7.318;2023-02-02T05:46:48;1;1;
47810;PMS5003;33575;52.600;7.318;2023-02-02T05:49:19;1;1;
47810;PMS5003;33575;52.600;7.318;2023-02-02T05:51:51;0;0;
47810;PMS5003;33575;52.600;7.318;2023-02-02T05:54:21;0;0;
47810;PMS5003;33575;52.600;7.318;2023-02-02T05:56:52;1;0;
47810;PMS5003;33575;52.600;7.318;2023-02-02T05:59:22;0;0;
47810;PMS5003;33575;52.600;7.318;2023-02-02T06:01:53;0;0;
47810;PMS5003;33575;52.600;7.318;2023-02-02T06:04:23;0;0;
47810;PMS5003;33575;52.600;7.318;2023-02-02T06:06:54;2;0;
47810;PMS5003;33575;52.600;7.318;2023-02-02T06:09:25;2;1;
47810;PMS5003;33575;52.600;7.318;2023-02-02T06:11:56;1;1;
47810;PMS5003;33575;52.600;7.318;2023-02-02T06:14:27;2;0;
47810;PMS5003;33575;52.600;7.318;2023-02-02T06:16:57;0;0;
47810;PMS5003;33575;52.600;7.318;2023-02-02T06:19:28;0;0;
47810;PMS5003;33575;52.600;7.318;2023-02-02T06:21:59;1;1;
47810;PMS5003;33575;52.600;7.318;2023-02-02T06:24:29;0;0;
47810;PMS5003;33575;52.600;7.318;2023-02-02T06:27:00;0;0;
47810;PMS5003;33575;52.600;7.318;2023-02-02T06:29:31;1;1;
47810;PMS5003;33575;52.600;7.318;2023-02-02T06:32:02;1;0;
47810;PMS5003;33575;52.600;7.318;2023-02-02T06:34:32;2;1;
47810;PMS5003;33575;52.600;7.318;2023-02-02T06:37:03;0;0;
47810;PMS5003;33575;52.600;7.318;2023-02-02T06:39:34;1;1;
47810;PMS5003;33575;52.600;7.318;2023-02-02T06:42:10;1;0;
47810;PMS5003;33575;52.600;7.318;2023-02-02T06:44:35;0;0;
47810;PMS5003;33575;52.600;7.318;2023-02-02T06:47:06;1;1;
47810;PMS5003;33575;52.600;7.318;2023-02-02T06:49:37;4;2;
47810;PMS5003;33575;52.600;7.318;2023-02-02T06:52:07;0;0;
47810;PMS5003;33575;52.600;7.318;2023-02-02T06:54:38;2;1;
47810;PMS5003;33575;52.600;7.318;2023-02-02T06:57:09;3;2;
47810;PMS5003;33575;52.600;7.318;2023-02-02T06:59:40;2;1;
47810;PMS5003;33575;52.600;7.318;2023-02-02T07:02:11;2;1;
47810;PMS5003;33575;52.600;7.318;2023-02-02T07:04:41;3;2;
47810;PMS5003;33575;52.600;7.318;2023-02-02T07:07:12;10;4;
47810;PMS5003;33575;52.600;7.318;2023-02-02T07:09:42;7;7;
47810;PMS5003;33575;52.600;7.318;2023-02-02T07:12:13;3;3;
47810;PMS5003;33575;52.600;7.318;2023-02-02T07:14:44;4;1;
47810;PMS5003;33575;52.600;7.318;2023-02-02T07:17:15;1;1;
47810;PMS5003;33575;52.600;7.318;2023-02-02T07:19:45;0;0;
47810;PMS5003;33575;52.600;7.318;2023-02-02T07:22:16;2;1;
47810;PMS5003;33575;52.600;7.318;2023-02-02T07:24:47;1;1;
47810;PMS5003;33575;52.600;7.318;2023-02-02T07:27:18;0;0;
47810;PMS5003;33575;52.600;7.318;2023-02-02T07:29:48;1;0;
47810;PMS5003;33575;52.600;7.318;2023-02-02T07:32:19;2;2;
47810;PMS5003;33575;52.600;7.318;2023-02-02T07:34:50;2;2;
47810;PMS5003;33575;52.600;7.318;2023-02-02T07:37:21;3;3;
47810;PMS5003;33575;52.600;7.318;2023-02-02T07:39:51;3;2;
47810;PMS5003;33575;52.600;7.318;2023-02-02T07:42:22;4;4;
47810;PMS5003;33575;52.600;7.318;2023-02-02T07:44:53;4;2;
47810;PMS5003;33575;52.600;7.318;2023-02-02T07:47:23;6;4;
47810;PMS5003;33575;52.600;7.318;2023-02-02T07:49:54;2;2;
47810;PMS5003;33575;52.600;7.318;2023-02-02T07:52:25;5;3;
47810;PMS5003;33575;52.600;7.318;2023-02-02T07:55:01;3;3;
47810;PMS5003;33575;52.600;7.318;2023-02-02T07:57:26;2;2;
47810;PMS5003;33575;52.600;7.318;2023-02-02T07:59:57;4;3;
47810;PMS5003;33575;52.600;7.318;2023-02-02T08:02:28;4;4;
47810;PMS5003;33575;52.600;7.318;2023-02-02T08:04:59;4;4;
47810;PMS5003;33575;52.600;7.318;2023-02-02T08:07:29;3;3;
47810;PMS5003;33575;52.600;7.318;2023-02-02T08:10:00;2;1;
47810;PMS5003;33575;52.600;7.318;2023-02-02T08:12:31;4;3;
47810;PMS5003;33575;52.600;7.318;2023-02-02T08:15:02;5;4;
47810;PMS5003;33575;52.600;7.318;2023-02-02T08:17:32;5;4;
47810;PMS5003;33575;52.600;7.318;2023-02-02T08:20:03;6;3;
47810;PMS5003;33575;52.600;7.318;2023-02-02T08:22:34;4;3;
47810;PMS5003;33575;52.600;7.318;2023-02-02T08:25:05;2;2;
47810;PMS5003;33575;52.600;7.318;2023-02-02T08:27:38;2;2;
47810;PMS5003;33575;52.600;7.318;2023-02-02T08:30:06;3;1;
47810;PMS5003;33575;52.600;7.318;2023-02-02T08:32:37;3;2;
47810;PMS5003;33575;52.600;7.318;2023-02-02T08:35:07;1;1;
47810;PMS5003;33575;52.600;7.318;2023-02-02T08:37:38;4;3;
47810;PMS5003;33575;52.600;7.318;2023-02-02T08:40:10;1;1;
47810;PMS5003;33575;52.600;7.318;2023-02-02T08:42:40;2;1;
47810;PMS5003;33575;52.600;7.318;2023-02-02T08:45:15;3;2;
47810;PMS5003;33575;52.600;7.318;2023-02-02T08:47:41;2;2;
47810;PMS5003;33575;52.600;7.318;2023-02-02T08:50:12;2;2;
47810;PMS5003;33575;52.600;7.318;2023-02-02T08:52:42;4;3;
47810;PMS5003;33575;52.600;7.318;2023-02-02T08:55:13;6;6;
47810;PMS5003;33575;52.600;7.318;2023-02-02T08:57:44;9;8;
47810;PMS5003;33575;52.600;7.318;2023-02-02T09:00:16;5;5;
47810;PMS5003;33575;52.600;7.318;2023-02-02T09:02:48;7;4;
47810;PMS5003;33575;52.600;7.318;2023-02-02T09:05:16;2;2;
47810;PMS5003;33575;52.600;7.318;2023-02-02T09:07:47;4;3;
47810;PMS5003;33575;52.600;7.318;2023-02-02T09:10:18;3;2;
47810;PMS5003;33575;52.600;7.318;2023-02-02T09:12:48;3;2;
47810;PMS5003;33575;52.600;7.318;2023-02-02T09:15:19;4;3;
47810;PMS5003;33575;52.600;7.318;2023-02-02T09:17:50;5;3;
47810;PMS5003;33575;52.600;7.318;2023-02-02T09:20:21;6;4;
47810;PMS5003;33575;52.600;7.318;2023-02-02T09:22:53;4;3;
47810;PMS5003;33575;52.600;7.318;2023-02-02T09:25:23;7;5;
47810;PMS5003;33575;52.600;7.318;2023-02-02T09:27:53;4;3;
47810;PMS5003;33575;52.600;7.318;2023-02-02T09:30:24;3;3;
47810;PMS5003;33575;52.600;7.318;2023-02-02T09:35:25;3;2;
47810;PMS5003;33575;52.600;7.318;2023-02-02T09:37:56;3;2;
47810;PMS5003;33575;52.600;7.318;2023-02-02T09:40:28;5;4;
47810;PMS5003;33575;52.600;7.318;2023-02-02T09:42:59;3;3;
47810;PMS5003;33575;52.600;7.318;2023-02-02T09:45:30;3;3;
47810;PMS5003;33575;52.600;7.318;2023-02-02T09:48:00;2;2;
47810;PMS5003;33575;52.600;7.318;2023-02-02T09:50:33;3;3;
47810;PMS5003;33575;52.600;7.318;2023-02-02T09:53:01;3;2;
47810;PMS5003;33575;52.600;7.318;2023-02-02T09:58:05;4;4;
47810;PMS5003;33575;52.600;7.318;2023-02-02T10:00:32;4;3;
47810;PMS5003;33575;52.600;7.318;2023-02-02T10:03:06;3;3;
47810;PMS5003;33575;52.600;7.318;2023-02-02T10:05:39;2;2;
47810;PMS5003;33575;52.600;7.318;2023-02-02T10:08:04;6;5;
47810;PMS5003;33575;52.600;7.318;2023-02-02T10:10:38;5;3;
47810;PMS5003;33575;52.600;7.318;2023-02-02T10:13:08;3;2;
47810;PMS5003;33575;52.600;7.318;2023-02-02T10:15:39;4;3;
47810;PMS5003;33575;52.600;7.318;2023-02-02T10:18:09;2;1;
47810;PMS5003;33575;52.600;7.318;2023-02-02T10:20:38;4;1;
47810;PMS5003;33575;52.600;7.318;2023-02-02T10:23:10;2;2;
47810;PMS5003;33575;52.600;7.318;2023-02-02T10:25:38;3;2;
47810;PMS5003;33575;52.600;7.318;2023-02-02T10:28:10;3;3;
47810;PMS5003;33575;52.600;7.318;2023-02-02T10:30:41;2;2;
47810;PMS5003;33575;52.600;7.318;2023-02-02T10:33:13;5;4;
47810;PMS5003;33575;52.600;7.318;2023-02-02T10:35:41;2;2;
47810;PMS5003;33575;52.600;7.318;2023-02-02T10:38:14;2;2;
47810;PMS5003;33575;52.600;7.318;2023-02-02T10:40:45;1;1;
47810;PMS5003;33575;52.600;7.318;2023-02-02T10:43:18;3;2;
47810;PMS5003;33575;52.600;7.318;2023-02-02T10:45:43;2;1;
47810;PMS5003;33575;52.600;7.318;2023-02-02T10:48:15;5;4;
47810;PMS5003;33575;52.600;7.318;2023-02-02T10:50:46;4;3;
47810;PMS5003;33575;52.600;7.318;2023-02-02T10:53:15;6;6;
47810;PMS5003;33575;52.600;7.318;2023-02-02T10:55:48;4;4;
47810;PMS5003;33575;52.600;7.318;2023-02-02T10:58:19;4;3;
47810;PMS5003;33575;52.600;7.318;2023-02-02T11:00:48;5;4;
47810;PMS5003;33575;52.600;7.318;2023-02-02T11:03:19;3;3;
47810;PMS5003;33575;52.600;7.318;2023-02-02T11:05:49;3;2;
47810;PMS5003;33575;52.600;7.318;2023-02-02T11:08:20;4;3;
47810;PMS5003;33575;52.600;7.318;2023-02-02T11:10:51;3;3;
47810;PMS5003;33575;52.600;7.318;2023-02-02T11:13:25;5;4;
47810;PMS5003;33575;52.600;7.318;2023-02-02T11:18:26;2;2;
47810;PMS5003;33575;52.600;7.318;2023-02-02T11:20:53;2;2;
47810;PMS5003;33575;52.600;7.318;2023-02-02T11:23:24;3;1;
47810;PMS5003;33575;52.600;7.318;2023-02-02T11:25:55;3;3;
47810;PMS5003;33575;52.600;7.318;2023-02-02T11:28:25;3;2;
47810;PMS5003;33575;52.600;7.318;2023-02-02T11:30:56;3;2;
47810;PMS5003;33575;52.600;7.318;2023-02-02T11:33:27;4;3;
47810;PMS5003;33575;52.600;7.318;2023-02-02T11:35:57;4;3;
47810;PMS5003;33575;52.600;7.318;2023-02-02T11:38:28;4;3;
47810;PMS5003;33575;52.600;7.318;2023-02-02T11:40:58;2;2;
47810;PMS5003;33575;52.600;7.318;2023-02-02T11:43:29;2;1;
47810;PMS5003;33575;52.600;7.318;2023-02-02T11:46:04;4;2;
47810;PMS5003;33575;52.600;7.318;2023-02-02T11:48:31;3;3;
47810;PMS5003;33575;52.600;7.318;2023-02-02T11:51:01;4;2;
47810;PMS5003;33575;52.600;7.318;2023-02-02T11:53:33;3;3;
47810;PMS5003;33575;52.600;7.318;2023-02-02T11:56:03;3;3;
47810;PMS5003;33575;52.600;7.318;2023-02-02T12:01:03;2;2;
47810;PMS5003;33575;52.600;7.318;2023-02-02T12:03:35;4;2;
47810;PMS5003;33575;52.600;7.318;2023-02-02T12:08:35;5;3;
47810;PMS5003;33575;52.600;7.318;2023-02-02T12:11:07;4;4;
47810;PMS5003;33575;52.600;7.318;2023-02-02T12:13:41;6;5;
47810;PMS5003;33575;52.600;7.318;2023-02-02T12:16:13;4;4;
47810;PMS5003;33575;52.600;7.318;2023-02-02T12:18:40;4;4;
47810;PMS5003;33575;52.600;7.318;2023-02-02T12:21:10;4;4;
47810;PMS5003;33575;52.600;7.318;2023-02-02T12:23:43;6;5;
47810;PMS5003;33575;52.600;7.318;2023-02-02T12:26:14;7;7;
47810;PMS5003;33575;52.600;7.318;2023-02-02T12:28:44;7;6;
47810;PMS5003;33575;52.600;7.318;2023-02-02T12:31:13;8;7;
47810;PMS5003;33575;52.600;7.318;2023-02-02T12:33:44;6;5;
47810;PMS5003;33575;52.600;7.318;2023-02-02T12:36:18;5;4;
47810;PMS5003;33575;52.600;7.318;2023-02-02T12:38:48;7;7;
47810;PMS5003;33575;52.600;7.318;2023-02-02T12:41:18;7;7;
47810;PMS5003;33575;52.600;7.318;2023-02-02T12:43:45;8;7;
47810;PMS5003;33575;52.600;7.318;2023-02-02T12:46:18;5;5;
47810;PMS5003;33575;52.600;7.318;2023-02-02T12:48:49;6;5;
47810;PMS5003;33575;52.600;7.318;2023-02-02T12:51:20;7;6;
47810;PMS5003;33575;52.600;7.318;2023-02-02T12:53:58;7;7;
47810;PMS5003;33575;52.600;7.318;2023-02-02T12:56:21;6;4;
47810;PMS5003;33575;52.600;7.318;2023-02-02T12:58:51;3;3;
47810;PMS5003;33575;52.600;7.318;2023-02-02T13:01:21;6;6;
47810;PMS5003;33575;52.600;7.318;2023-02-02T13:03:54;8;6;
47810;PMS5003;33575;52.600;7.318;2023-02-02T13:06:24;8;8;
47810;PMS5003;33575;52.600;7.318;2023-02-02T13:08:52;7;7;
47810;PMS5003;33575;52.600;7.318;2023-02-02T13:11:21;6;5;
47810;PMS5003;33575;52.600;7.318;2023-02-02T13:13:51;8;8;
47810;PMS5003;33575;52.600;7.318;2023-02-02T13:16:22;6;6;
47810;PMS5003;33575;52.600;7.318;2023-02-02T13:18:54;8;6;
47810;PMS5003;33575;52.600;7.318;2023-02-02T13:21:23;8;7;
47810;PMS5003;33575;52.600;7.318;2023-02-02T13:23:55;6;5;
47810;PMS5003;33575;52.600;7.318;2023-02-02T13:26:26;5;5;
47810;PMS5003;33575;52.600;7.318;2023-02-02T13:28:56;8;6;
47810;PMS5003;33575;52.600;7.318;2023-02-02T13:31:27;9;6;
47810;PMS5003;33575;52.600;7.318;2023-02-02T13:33:59;6;6;
47810;PMS5003;33575;52.600;7.318;2023-02-02T13:36:27;5;5;
47810;PMS5003;33575;52.600;7.318;2023-02-02T13:38:58;6;5;
47810;PMS5003;33575;52.600;7.318;2023-02-02T13:41:28;6;6;
47810;PMS5003;33575;52.600;7.318;2023-02-02T13:44:00;4;4;
47810;PMS5003;33575;52.600;7.318;2023-02-02T13:46:32;5;5;
47810;PMS5003;33575;52.600;7.318;2023-02-02T13:49:02;5;4;
47810;PMS5003;33575;52.600;7.318;2023-02-02T13:51:35;6;4;
47810;PMS5003;33575;52.600;7.318;2023-02-02T13:54:09;5;4;
47810;PMS5003;33575;52.600;7.318;2023-02-02T13:56:37;4;4;
47810;PMS5003;33575;52.600;7.318;2023-02-02T13:59:06;5;4;
47810;PMS5003;33575;52.600;7.318;2023-02-02T14:01:34;4;3;
47810;PMS5003;33575;52.600;7.318;2023-02-02T14:04:04;6;6;
47810;PMS5003;33575;52.600;7.318;2023-02-02T14:09:06;4;4;
47810;PMS5003;33575;52.600;7.318;2023-02-02T14:11:37;4;4;
47810;PMS5003;33575;52.600;7.318;2023-02-02T14:14:07;6;5;
47810;PMS5003;33575;52.600;7.318;2023-02-02T14:16:44;3;3;
47810;PMS5003;33575;52.600;7.318;2023-02-02T14:19:12;4;4;
47810;PMS5003;33575;52.600;7.318;2023-02-02T14:26:41;4;3;
47810;PMS5003;33575;52.600;7.318;2023-02-02T14:31:50;6;6;
47810;PMS5003;33575;52.600;7.318;2023-02-02T14:39:16;2;2;
47810;PMS5003;33575;52.600;7.318;2023-02-02T14:41:48;7;5;
47810;PMS5003;33575;52.600;7.318;2023-02-02T14:44:14;6;4;
47810;PMS5003;33575;52.600;7.318;2023-02-02T14:46:45;4;4;
47810;PMS5003;33575;52.600;7.318;2023-02-02T14:49:17;6;5;
47810;PMS5003;33575;52.600;7.318;2023-02-02T14:51:49;8;6;
47810;PMS5003;33575;52.600;7.318;2023-02-02T14:54:19;9;8;
47810;PMS5003;33575;52.600;7.318;2023-02-02T14:56:48;8;8;
47810;PMS5003;33575;52.600;7.318;2023-02-02T14:59:18;8;7;
47810;PMS5003;33575;52.600;7.318;2023-02-02T15:01:53;7;6;
47810;PMS5003;33575;52.600;7.318;2023-02-02T15:04:23;8;7;
47810;PMS5003;33575;52.600;7.318;2023-02-02T15:06:49;9;7;
47810;PMS5003;33575;52.600;7.318;2023-02-02T15:14:21;11;11;
47810;PMS5003;33575;52.600;7.318;2023-02-02T15:16:52;9;9;
47810;PMS5003;33575;52.600;7.318;2023-02-02T15:19:26;11;10;
47810;PMS5003;33575;52.600;7.318;2023-02-02T15:21:53;10;10;
47810;PMS5003;33575;52.600;7.318;2023-02-02T15:24:25;12;11;
47810;PMS5003;33575;52.600;7.318;2023-02-02T15:26:54;11;10;
47810;PMS5003;33575;52.600;7.318;2023-02-02T15:29:30;11;11;
47810;PMS5003;33575;52.600;7.318;2023-02-02T15:31:56;14;13;
47810;PMS5003;33575;52.600;7.318;2023-02-02T15:34:28;11;10;
47810;PMS5003;33575;52.600;7.318;2023-02-02T15:36:59;11;11;
47810;PMS5003;33575;52.600;7.318;2023-02-02T15:39:28;9;8;
47810;PMS5003;33575;52.600;7.318;2023-02-02T15:41:59;10;10;
47810;PMS5003;33575;52.600;7.318;2023-02-02T15:44:28;14;14;
47810;PMS5003;33575;52.600;7.318;2023-02-02T15:46:59;11;10;
47810;PMS5003;33575;52.600;7.318;2023-02-02T15:49:35;9;9;
47810;PMS5003;33575;52.600;7.318;2023-02-02T15:52:06;15;12;
47810;PMS5003;33575;52.600;7.318;2023-02-02T15:54:33;13;11;
47810;PMS5003;33575;52.600;7.318;2023-02-02T15:57:02;11;10;
47810;PMS5003;33575;52.600;7.318;2023-02-02T15:59:37;12;11;
47810;PMS5003;33575;52.600;7.318;2023-02-02T16:02:07;12;11;
47810;PMS5003;33575;52.600;7.318;2023-02-02T16:04:34;11;11;
47810;PMS5003;33575;52.600;7.318;2023-02-02T16:07:04;13;13;
47810;PMS5003;33575;52.600;7.318;2023-02-02T16:09:34;11;11;
47810;PMS5003;33575;52.600;7.318;2023-02-02T16:12:05;12;12;
47810;PMS5003;33575;52.600;7.318;2023-02-02T16:14:37;13;12;
47810;PMS5003;33575;52.600;7.318;2023-02-02T16:17:09;10;10;
47810;PMS5003;33575;52.600;7.318;2023-02-02T16:19:37;13;13;
47810;PMS5003;33575;52.600;7.318;2023-02-02T16:22:09;15;15;
47810;PMS5003;33575;52.600;7.318;2023-02-02T16:24:39;18;15;
47810;PMS5003;33575;52.600;7.318;2023-02-02T16:27:11;13;12;
47810;PMS5003;33575;52.600;7.318;2023-02-02T16:29:39;13;12;
47810;PMS5003;33575;52.600;7.318;2023-02-02T16:34:42;16;15;
47810;PMS5003;33575;52.600;7.318;2023-02-02T16:37:12;15;14;
47810;PMS5003;33575;52.600;7.318;2023-02-02T16:39:42;14;14;
47810;PMS5003;33575;52.600;7.318;2023-02-02T16:44:43;12;11;
47810;PMS5003;33575;52.600;7.318;2023-02-02T16:49:44;14;13;
47810;PMS5003;33575;52.600;7.318;2023-02-02T16:52:14;14;12;
47810;PMS5003;33575;52.600;7.318;2023-02-02T16:54:49;12;12;
47810;PMS5003;33575;52.600;7.318;2023-02-02T16:57:16;12;12;
47810;PMS5003;33575;52.600;7.318;2023-02-02T16:59:47;11;10;
47810;PMS5003;33575;52.600;7.318;2023-02-02T17:02:19;13;12;
47810;PMS5003;33575;52.600;7.318;2023-02-02T17:04:48;12;12;
47810;PMS5003;33575;52.600;7.318;2023-02-02T17:07:18;14;13;
47810;PMS5003;33575;52.600;7.318;2023-02-02T17:09:48;12;12;
47810;PMS5003;33575;52.600;7.318;2023-02-02T17:12:24;12;12;
47810;PMS5003;33575;52.600;7.318;2023-02-02T17:14:52;15;14;
47810;PMS5003;33575;52.600;7.318;2023-02-02T17:17:20;13;13;
47810;PMS5003;33575;52.600;7.318;2023-02-02T17:19:51;11;11;
47810;PMS5003;33575;52.600;7.318;2023-02-02T17:24:57;16;14;
47810;PMS5003;33575;52.600;7.318;2023-02-02T17:27:24;12;11;
47810;PMS5003;33575;52.600;7.318;2023-02-02T17:29:58;19;17;
47810;PMS5003;33575;52.600;7.318;2023-02-02T17:32:24;16;13;
47810;PMS5003;33575;52.600;7.318;2023-02-02T17:34:55;17;16;
47810;PMS5003;33575;52.600;7.318;2023-02-02T17:37:25;13;13;
47810;PMS5003;33575;52.600;7.318;2023-02-02T17:39:56;18;17;
47810;PMS5003;33575;52.600;7.318;2023-02-02T17:42:27;13;12;
47810;PMS5003;33575;52.600;7.318;2023-02-02T17:47:28;22;16;
47810;PMS5003;33575;52.600;7.318;2023-02-02T17:49:58;15;14;
47810;PMS5003;33575;52.600;7.318;2023-02-02T17:52:29;15;13;
47810;PMS5003;33575;52.600;7.318;2023-02-02T17:55:00;14;14;
47810;PMS5003;33575;52.600;7.318;2023-02-02T17:57:30;16;16;